sensor_id;sensor_type;location;lat;lon;timestamp;P1;durP1;ratioP1;P2;durP2;ratioP2
80400;SDS011;69727;53.132;8.230;2023-07-31T00:01:44;9.17;;;2.47;;
80400;SDS011;69727;53.132;8.230;2023-07-31T00:04:09;6.40;;;2.90;;
80400;SDS011;69727;53.132;8.230;2023-07-31T00:06:35;7.50;;;2.97;;
80400;SDS011;69727;53.132;8.230;2023-07-31T00:09:00;7.27;;;3.07;;
80400;SDS011;69727;53.132;8.230;2023-07-31T00:11:25;6.93;;;3.23;;
80400;SDS011;69727;53.132;8.230;2023-07-31T00:13:52;6.40;;;2.77;;
80400;SDS011;69727;53.132;8.230;2023-07-31T00:16:17;5.20;;;2.55;;
80400;SDS011;69727;53.132;8.230;2023-07-31T00:18:43;8.03;;;2.30;;
80400;SDS011;69727;53.132;8.230;2023-07-31T00:21:08;7.33;;;3.10;;
80400;SDS011;69727;53.132;8.230;2023-07-31T00:23:33;6.07;;;2.47;;
80400;SDS011;69727;53.132;8.230;2023-07-31T00:25:58;6.97;;;2.63;;
80400;SDS011;69727;53.132;8.230;2023-07-31T00:28:23;9.43;;;2.50;;
80400;SDS011;69727;53.132;8.230;2023-07-31T00:30:49;4.60;;;2.03;;
80400;SDS011;69727;53.132;8.230;2023-07-31T00:33:14;7.30;;;2.20;;
80400;SDS011;69727;53.132;8.230;2023-07-31T00:35:39;5.83;;;2.10;;
80400;SDS011;69727;53.132;8.230;2023-07-31T00:38:04;6.93;;;2.33;;
80400;SDS011;69727;53.132;8.230;2023-07-31T00:40:34;5.63;;;2.43;;
80400;SDS011;69727;53.132;8.230;2023-07-31T00:42:59;6.90;;;2.72;;
80400;SDS011;69727;53.132;8.230;2023-07-31T00:45:24;5.27;;;2.60;;
80400;SDS011;69727;53.132;8.230;2023-07-31T00:47:51;5.20;;;2.22;;
80400;SDS011;69727;53.132;8.230;2023-07-31T00:50:17;7.53;;;2.50;;
80400;SDS011;69727;53.132;8.230;2023-07-31T00:52:42;8.33;;;2.83;;
80400;SDS011;69727;53.132;8.230;2023-07-31T00:55:07;5.50;;;2.17;;
80400;SDS011;69727;53.132;8.230;2023-07-31T00:57:33;7.65;;;2.40;;
80400;SDS011;69727;53.132;8.230;2023-07-31T00:59:59;8.45;;;2.55;;
80400;SDS011;69727;53.132;8.230;2023-07-31T01:02:25;6.63;;;2.53;;
80400;SDS011;69727;53.132;8.230;2023-07-31T01:04:50;6.80;;;2.60;;
80400;SDS011;69727;53.132;8.230;2023-07-31T01:07:21;4.77;;;1.90;;
80400;SDS011;69727;53.132;8.230;2023-07-31T01:09:49;7.18;;;2.53;;
80400;SDS011;69727;53.132;8.230;2023-07-31T01:12:17;7.20;;;2.25;;
80400;SDS011;69727;53.132;8.230;2023-07-31T01:17:27;6.82;;;2.13;;
80400;SDS011;69727;53.132;8.230;2023-07-31T01:19:53;6.13;;;2.17;;
80400;SDS011;69727;53.132;8.230;2023-07-31T01:25:15;5.28;;;2.30;;
80400;SDS011;69727;53.132;8.230;2023-07-31T01:28:01;4.97;;;2.30;;
80400;SDS011;69727;53.132;8.230;2023-07-31T01:30:29;5.20;;;2.70;;
80400;SDS011;69727;53.132;8.230;2023-07-31T01:32:55;5.22;;;2.60;;
80400;SDS011;69727;53.132;8.230;2023-07-31T01:35:21;4.82;;;2.60;;
80400;SDS011;69727;53.132;8.230;2023-07-31T01:37:46;11.00;;;3.50;;
80400;SDS011;69727;53.132;8.230;2023-07-31T01:40:12;7.13;;;2.90;;
80400;SDS011;69727;53.132;8.230;2023-07-31T01:42:37;7.50;;;3.97;;
80400;SDS011;69727;53.132;8.230;2023-07-31T01:45:02;6.67;;;3.03;;
80400;SDS011;69727;53.132;8.230;2023-07-31T01:47:27;7.73;;;3.50;;
80400;SDS011;69727;53.132;8.230;2023-07-31T01:49:53;10.13;;;3.50;;
80400;SDS011;69727;53.132;8.230;2023-07-31T01:52:18;8.20;;;3.50;;
80400;SDS011;69727;53.132;8.230;2023-07-31T01:54:43;10.37;;;3.77;;
80400;SDS011;69727;53.132;8.230;2023-07-31T01:57:08;6.97;;;4.10;;
80400;SDS011;69727;53.132;8.230;2023-07-31T01:59:34;8.40;;;3.60;;
80400;SDS011;69727;53.132;8.230;2023-07-31T02:02:00;7.17;;;3.20;;
80400;SDS011;69727;53.132;8.230;2023-07-31T02:04:25;10.77;;;3.95;;
80400;SDS011;69727;53.132;8.230;2023-07-31T02:06:50;9.10;;;3.60;;
80400;SDS011;69727;53.132;8.230;2023-07-31T02:09:15;7.33;;;3.43;;
80400;SDS011;69727;53.132;8.230;2023-07-31T02:11:41;7.40;;;3.37;;
80400;SDS011;69727;53.132;8.230;2023-07-31T02:14:06;14.87;;;4.20;;
80400;SDS011;69727;53.132;8.230;2023-07-31T02:16:31;13.70;;;4.87;;
80400;SDS011;69727;53.132;8.230;2023-07-31T02:18:57;9.57;;;4.10;;
80400;SDS011;69727;53.132;8.230;2023-07-31T02:21:22;8.38;;;4.10;;
80400;SDS011;69727;53.132;8.230;2023-07-31T02:23:47;8.73;;;4.07;;
80400;SDS011;69727;53.132;8.230;2023-07-31T02:26:13;8.57;;;4.00;;
80400;SDS011;69727;53.132;8.230;2023-07-31T02:28:38;8.60;;;3.77;;
80400;SDS011;69727;53.132;8.230;2023-07-31T02:31:03;9.10;;;4.40;;
80400;SDS011;69727;53.132;8.230;2023-07-31T02:33:28;9.13;;;4.23;;
80400;SDS011;69727;53.132;8.230;2023-07-31T02:35:54;11.70;;;4.60;;
80400;SDS011;69727;53.132;8.230;2023-07-31T02:38:19;9.70;;;4.33;;
80400;SDS011;69727;53.132;8.230;2023-07-31T02:40:44;10.47;;;4.67;;
80400;SDS011;69727;53.132;8.230;2023-07-31T02:43:09;9.67;;;4.27;;
80400;SDS011;69727;53.132;8.230;2023-07-31T02:45:35;10.30;;;4.53;;
80400;SDS011;69727;53.132;8.230;2023-07-31T02:48:00;9.37;;;4.37;;
80400;SDS011;69727;53.132;8.230;2023-07-31T02:50:25;8.45;;;4.30;;
80400;SDS011;69727;53.132;8.230;2023-07-31T02:52:52;10.25;;;4.80;;
80400;SDS011;69727;53.132;8.230;2023-07-31T02:55:17;9.87;;;4.70;;
80400;SDS011;69727;53.132;8.230;2023-07-31T02:57:43;11.87;;;5.27;;
80400;SDS011;69727;53.132;8.230;2023-07-31T03:00:08;9.30;;;5.00;;
80400;SDS011;69727;53.132;8.230;2023-07-31T03:02:34;10.63;;;5.55;;
80400;SDS011;69727;53.132;8.230;2023-07-31T03:04:59;11.07;;;5.17;;
80400;SDS011;69727;53.132;8.230;2023-07-31T03:07:25;11.00;;;5.10;;
80400;SDS011;69727;53.132;8.230;2023-07-31T03:09:50;11.43;;;5.80;;
80400;SDS011;69727;53.132;8.230;2023-07-31T03:12:15;10.53;;;4.60;;
80400;SDS011;69727;53.132;8.230;2023-07-31T03:14:40;11.43;;;5.17;;
80400;SDS011;69727;53.132;8.230;2023-07-31T03:17:06;12.27;;;5.77;;
80400;SDS011;69727;53.132;8.230;2023-07-31T03:19:31;11.13;;;5.65;;
80400;SDS011;69727;53.132;8.230;2023-07-31T03:21:57;12.25;;;5.72;;
80400;SDS011;69727;53.132;8.230;2023-07-31T03:24:22;11.70;;;5.47;;
80400;SDS011;69727;53.132;8.230;2023-07-31T03:26:47;14.77;;;5.53;;
80400;SDS011;69727;53.132;8.230;2023-07-31T03:29:13;10.90;;;5.07;;
80400;SDS011;69727;53.132;8.230;2023-07-31T03:31:38;9.83;;;4.93;;
80400;SDS011;69727;53.132;8.230;2023-07-31T03:34:03;11.43;;;5.47;;
80400;SDS011;69727;53.132;8.230;2023-07-31T03:36:28;17.50;;;5.77;;
80400;SDS011;69727;53.132;8.230;2023-07-31T03:38:54;13.03;;;6.40;;
80400;SDS011;69727;53.132;8.230;2023-07-31T03:41:19;14.30;;;6.07;;
80400;SDS011;69727;53.132;8.230;2023-07-31T03:43:46;11.70;;;5.27;;
80400;SDS011;69727;53.132;8.230;2023-07-31T03:46:11;12.68;;;5.85;;
80400;SDS011;69727;53.132;8.230;2023-07-31T03:48:36;11.20;;;4.83;;
80400;SDS011;69727;53.132;8.230;2023-07-31T03:51:01;14.00;;;5.50;;
80400;SDS011;69727;53.132;8.230;2023-07-31T03:53:27;11.43;;;5.83;;
80400;SDS011;69727;53.132;8.230;2023-07-31T03:55:52;11.97;;;5.70;;
80400;SDS011;69727;53.132;8.230;2023-07-31T03:58:17;10.83;;;5.50;;
80400;SDS011;69727;53.132;8.230;2023-07-31T04:00:42;10.40;;;4.70;;
80400;SDS011;69727;53.132;8.230;2023-07-31T04:03:08;13.30;;;5.53;;
80400;SDS011;69727;53.132;8.230;2023-07-31T04:05:33;10.83;;;5.10;;
80400;SDS011;69727;53.132;8.230;2023-07-31T04:07:58;9.23;;;4.47;;
80400;SDS011;69727;53.132;8.230;2023-07-31T04:10:24;8.93;;;4.13;;
80400;SDS011;69727;53.132;8.230;2023-07-31T04:12:49;10.93;;;4.00;;
80400;SDS011;69727;53.132;8.230;2023-07-31T04:15:14;8.90;;;4.03;;
80400;SDS011;69727;53.132;8.230;2023-07-31T04:17:39;10.63;;;4.03;;
80400;SDS011;69727;53.132;8.230;2023-07-31T04:20:05;9.53;;;3.97;;
80400;SDS011;69727;53.132;8.230;2023-07-31T04:22:30;8.70;;;4.30;;
80400;SDS011;69727;53.132;8.230;2023-07-31T04:24:56;8.63;;;3.67;;
80400;SDS011;69727;53.132;8.230;2023-07-31T04:27:21;8.17;;;3.63;;
80400;SDS011;69727;53.132;8.230;2023-07-31T04:29:46;7.30;;;3.80;;
80400;SDS011;69727;53.132;8.230;2023-07-31T04:32:12;7.07;;;3.70;;
80400;SDS011;69727;53.132;8.230;2023-07-31T04:34:37;7.83;;;3.63;;
80400;SDS011;69727;53.132;8.230;2023-07-31T04:37:03;9.13;;;3.70;;
80400;SDS011;69727;53.132;8.230;2023-07-31T04:39:28;8.53;;;3.97;;
80400;SDS011;69727;53.132;8.230;2023-07-31T04:41:53;8.23;;;3.67;;
80400;SDS011;69727;53.132;8.230;2023-07-31T04:50:24;8.45;;;3.05;;
80400;SDS011;69727;53.132;8.230;2023-07-31T04:52:50;6.33;;;2.50;;
80400;SDS011;69727;53.132;8.230;2023-07-31T04:55:15;5.77;;;2.53;;
80400;SDS011;69727;53.132;8.230;2023-07-31T04:57:40;5.83;;;2.67;;
80400;SDS011;69727;53.132;8.230;2023-07-31T05:00:05;6.00;;;2.63;;
80400;SDS011;69727;53.132;8.230;2023-07-31T05:02:31;6.60;;;2.38;;
80400;SDS011;69727;53.132;8.230;2023-07-31T05:17:25;4.82;;;1.80;;
80400;SDS011;69727;53.132;8.230;2023-07-31T05:19:52;4.90;;;1.80;;
80400;SDS011;69727;53.132;8.230;2023-07-31T05:43:43;5.13;;;2.30;;
80400;SDS011;69727;53.132;8.230;2023-07-31T05:46:08;8.10;;;2.20;;
80400;SDS011;69727;53.132;8.230;2023-07-31T05:48:34;7.22;;;2.80;;
80400;SDS011;69727;53.132;8.230;2023-07-31T05:50:59;5.25;;;2.08;;
80400;SDS011;69727;53.132;8.230;2023-07-31T05:53:24;5.00;;;2.50;;
80400;SDS011;69727;53.132;8.230;2023-07-31T05:55:50;7.13;;;2.43;;
80400;SDS011;69727;53.132;8.230;2023-07-31T05:58:15;5.70;;;2.10;;
80400;SDS011;69727;53.132;8.230;2023-07-31T06:00:40;4.67;;;2.20;;
80400;SDS011;69727;53.132;8.230;2023-07-31T06:03:06;5.38;;;2.38;;
80400;SDS011;69727;53.132;8.230;2023-07-31T06:05:31;5.20;;;2.10;;
80400;SDS011;69727;53.132;8.230;2023-07-31T06:07:56;4.90;;;2.00;;
80400;SDS011;69727;53.132;8.230;2023-07-31T06:10:22;5.45;;;1.95;;
80400;SDS011;69727;53.132;8.230;2023-07-31T06:12:47;5.00;;;1.77;;
80400;SDS011;69727;53.132;8.230;2023-07-31T06:15:12;7.57;;;1.73;;
80400;SDS011;69727;53.132;8.230;2023-07-31T06:17:38;3.07;;;1.40;;
80400;SDS011;69727;53.132;8.230;2023-07-31T06:20:03;5.13;;;1.30;;
80400;SDS011;69727;53.132;8.230;2023-07-31T06:22:30;5.57;;;1.30;;
80400;SDS011;69727;53.132;8.230;2023-07-31T06:24:55;4.45;;;1.30;;
80400;SDS011;69727;53.132;8.230;2023-07-31T06:27:20;3.93;;;1.33;;
80400;SDS011;69727;53.132;8.230;2023-07-31T06:29:46;2.60;;;1.10;;
80400;SDS011;69727;53.132;8.230;2023-07-31T06:32:11;3.20;;;1.30;;
80400;SDS011;69727;53.132;8.230;2023-07-31T06:34:36;3.63;;;1.20;;
80400;SDS011;69727;53.132;8.230;2023-07-31T06:37:02;3.13;;;1.40;;
80400;SDS011;69727;53.132;8.230;2023-07-31T06:39:27;4.03;;;1.60;;
80400;SDS011;69727;53.132;8.230;2023-07-31T06:41:52;3.97;;;1.67;;
80400;SDS011;69727;53.132;8.230;2023-07-31T06:44:17;4.47;;;1.80;;
80400;SDS011;69727;53.132;8.230;2023-07-31T06:46:43;5.13;;;1.90;;
80400;SDS011;69727;53.132;8.230;2023-07-31T06:49:08;4.83;;;1.70;;
80400;SDS011;69727;53.132;8.230;2023-07-31T06:51:33;6.13;;;1.70;;
80400;SDS011;69727;53.132;8.230;2023-07-31T06:53:58;3.77;;;1.80;;
80400;SDS011;69727;53.132;8.230;2023-07-31T06:56:24;4.33;;;1.90;;
80400;SDS011;69727;53.132;8.230;2023-07-31T06:58:49;5.67;;;1.63;;
80400;SDS011;69727;53.132;8.230;2023-07-31T07:01:14;5.67;;;1.80;;
80400;SDS011;69727;53.132;8.230;2023-07-31T07:03:39;11.17;;;2.00;;
80400;SDS011;69727;53.132;8.230;2023-07-31T07:06:05;4.80;;;1.90;;
80400;SDS011;69727;53.132;8.230;2023-07-31T07:08:30;4.63;;;1.80;;
80400;SDS011;69727;53.132;8.230;2023-07-31T08:26:06;36.38;;;12.73;;
80400;SDS011;69727;53.132;8.230;2023-07-31T08:28:31;33.72;;;12.52;;
80400;SDS011;69727;53.132;8.230;2023-07-31T08:31:00;37.75;;;12.30;;
80400;SDS011;69727;53.132;8.230;2023-07-31T08:33:25;40.45;;;13.20;;
80400;SDS011;69727;53.132;8.230;2023-07-31T08:35:50;33.20;;;12.37;;
80400;SDS011;69727;53.132;8.230;2023-07-31T08:38:21;35.27;;;13.63;;
80400;SDS011;69727;53.132;8.230;2023-07-31T08:40:50;33.03;;;13.07;;
80400;SDS011;69727;53.132;8.230;2023-07-31T08:43:36;41.40;;;13.73;;
80400;SDS011;69727;53.132;8.230;2023-07-31T08:46:11;29.60;;;11.43;;
80400;SDS011;69727;53.132;8.230;2023-07-31T08:48:45;32.03;;;12.25;;
80400;SDS011;69727;53.132;8.230;2023-07-31T08:56:55;29.80;;;11.73;;
80400;SDS011;69727;53.132;8.230;2023-07-31T08:59:21;25.73;;;11.27;;
80400;SDS011;69727;53.132;8.230;2023-07-31T09:04:46;27.05;;;10.45;;
80400;SDS011;69727;53.132;8.230;2023-07-31T09:10:14;21.80;;;9.60;;
80400;SDS011;69727;53.132;8.230;2023-07-31T09:18:53;22.58;;;9.85;;
80400;SDS011;69727;53.132;8.230;2023-07-31T09:21:35;23.58;;;10.73;;
80400;SDS011;69727;53.132;8.230;2023-07-31T09:24:24;25.38;;;10.25;;
80400;SDS011;69727;53.132;8.230;2023-07-31T09:26:56;25.23;;;10.88;;
80400;SDS011;69727;53.132;8.230;2023-07-31T09:29:22;23.70;;;9.98;;
80400;SDS011;69727;53.132;8.230;2023-07-31T09:31:53;23.23;;;10.77;;
80400;SDS011;69727;53.132;8.230;2023-07-31T09:34:28;20.48;;;9.27;;
80400;SDS011;69727;53.132;8.230;2023-07-31T09:36:53;20.70;;;9.75;;
80400;SDS011;69727;53.132;8.230;2023-07-31T10:03:01;14.52;;;5.43;;
80400;SDS011;69727;53.132;8.230;2023-07-31T10:05:30;13.70;;;5.80;;
80400;SDS011;69727;53.132;8.230;2023-07-31T10:08:09;10.60;;;4.57;;
80400;SDS011;69727;53.132;8.230;2023-07-31T10:10:35;11.35;;;4.82;;
80400;SDS011;69727;53.132;8.230;2023-07-31T10:13:01;9.45;;;4.28;;
80400;SDS011;69727;53.132;8.230;2023-07-31T10:15:26;10.52;;;4.65;;
80400;SDS011;69727;53.132;8.230;2023-07-31T10:17:52;7.60;;;3.67;;
80400;SDS011;69727;53.132;8.230;2023-07-31T10:20:19;9.35;;;4.18;;
80400;SDS011;69727;53.132;8.230;2023-07-31T10:22:45;7.03;;;3.20;;
80400;SDS011;69727;53.132;8.230;2023-07-31T10:25:11;7.85;;;3.50;;
80400;SDS011;69727;53.132;8.230;2023-07-31T10:27:36;10.27;;;3.57;;
80400;SDS011;69727;53.132;8.230;2023-07-31T10:30:03;8.57;;;3.83;;
80400;SDS011;69727;53.132;8.230;2023-07-31T10:32:29;8.20;;;4.00;;
80400;SDS011;69727;53.132;8.230;2023-07-31T10:34:54;5.88;;;3.33;;
80400;SDS011;69727;53.132;8.230;2023-07-31T10:37:36;7.07;;;3.38;;
80400;SDS011;69727;53.132;8.230;2023-07-31T10:40:06;7.30;;;3.58;;
80400;SDS011;69727;53.132;8.230;2023-07-31T10:42:35;6.15;;;3.38;;
80400;SDS011;69727;53.132;8.230;2023-07-31T10:45:08;7.75;;;3.15;;
80400;SDS011;69727;53.132;8.230;2023-07-31T10:47:44;7.10;;;3.60;;
80400;SDS011;69727;53.132;8.230;2023-07-31T10:50:17;8.13;;;3.33;;
80400;SDS011;69727;53.132;8.230;2023-07-31T10:52:44;6.47;;;3.03;;
80400;SDS011;69727;53.132;8.230;2023-07-31T10:57:44;5.63;;;2.40;;
80400;SDS011;69727;53.132;8.230;2023-07-31T11:00:19;6.25;;;2.70;;
80400;SDS011;69727;53.132;8.230;2023-07-31T11:02:58;4.43;;;2.40;;
80400;SDS011;69727;53.132;8.230;2023-07-31T11:08:12;6.57;;;2.40;;
80400;SDS011;69727;53.132;8.230;2023-07-31T11:10:37;4.60;;;2.40;;
80400;SDS011;69727;53.132;8.230;2023-07-31T11:13:04;4.63;;;2.47;;
80400;SDS011;69727;53.132;8.230;2023-07-31T11:15:29;5.78;;;2.50;;
80400;SDS011;69727;53.132;8.230;2023-07-31T11:17:55;4.03;;;2.57;;
80400;SDS011;69727;53.132;8.230;2023-07-31T11:20:23;4.47;;;2.40;;
80400;SDS011;69727;53.132;8.230;2023-07-31T11:22:49;4.70;;;2.42;;
80400;SDS011;69727;53.132;8.230;2023-07-31T11:25:15;4.18;;;2.55;;
80400;SDS011;69727;53.132;8.230;2023-07-31T11:27:43;5.85;;;2.67;;
80400;SDS011;69727;53.132;8.230;2023-07-31T11:30:09;5.53;;;2.80;;
80400;SDS011;69727;53.132;8.230;2023-07-31T11:32:38;9.63;;;3.13;;
80400;SDS011;69727;53.132;8.230;2023-07-31T11:35:22;5.22;;;2.65;;
80400;SDS011;69727;53.132;8.230;2023-07-31T11:37:53;5.57;;;2.50;;
80400;SDS011;69727;53.132;8.230;2023-07-31T11:40:40;5.63;;;2.70;;
80400;SDS011;69727;53.132;8.230;2023-07-31T11:46:03;4.40;;;2.70;;
80400;SDS011;69727;53.132;8.230;2023-07-31T11:48:29;7.88;;;3.33;;
80400;SDS011;69727;53.132;8.230;2023-07-31T11:50:59;5.80;;;3.03;;
80400;SDS011;69727;53.132;8.230;2023-07-31T11:56:27;5.38;;;2.67;;
80400;SDS011;69727;53.132;8.230;2023-07-31T11:58:59;3.80;;;2.42;;
80400;SDS011;69727;53.132;8.230;2023-07-31T12:01:28;4.88;;;3.10;;
80400;SDS011;69727;53.132;8.230;2023-07-31T12:03:53;5.45;;;2.70;;
80400;SDS011;69727;53.132;8.230;2023-07-31T12:06:19;5.65;;;3.10;;
80400;SDS011;69727;53.132;8.230;2023-07-31T12:08:46;4.50;;;2.60;;
80400;SDS011;69727;53.132;8.230;2023-07-31T12:11:11;5.95;;;2.83;;
80400;SDS011;69727;53.132;8.230;2023-07-31T12:13:36;5.07;;;3.00;;
80400;SDS011;69727;53.132;8.230;2023-07-31T12:16:03;4.72;;;3.13;;
80400;SDS011;69727;53.132;8.230;2023-07-31T12:18:29;5.15;;;2.90;;
80400;SDS011;69727;53.132;8.230;2023-07-31T12:20:58;5.07;;;3.08;;
80400;SDS011;69727;53.132;8.230;2023-07-31T12:23:27;5.30;;;3.40;;
80400;SDS011;69727;53.132;8.230;2023-07-31T12:26:09;5.38;;;3.55;;
80400;SDS011;69727;53.132;8.230;2023-07-31T12:31:06;5.93;;;3.88;;
80400;SDS011;69727;53.132;8.230;2023-07-31T12:33:32;6.45;;;4.13;;
80400;SDS011;69727;53.132;8.230;2023-07-31T12:35:59;6.50;;;4.20;;
80400;SDS011;69727;53.132;8.230;2023-07-31T12:38:25;5.72;;;3.88;;
80400;SDS011;69727;53.132;8.230;2023-07-31T12:40:51;6.15;;;4.05;;
80400;SDS011;69727;53.132;8.230;2023-07-31T12:43:16;5.20;;;3.33;;
80400;SDS011;69727;53.132;8.230;2023-07-31T12:45:41;4.57;;;3.00;;
80400;SDS011;69727;53.132;8.230;2023-07-31T12:48:06;4.57;;;3.07;;
80400;SDS011;69727;53.132;8.230;2023-07-31T12:50:32;4.50;;;2.90;;
80400;SDS011;69727;53.132;8.230;2023-07-31T12:52:57;4.90;;;3.07;;
80400;SDS011;69727;53.132;8.230;2023-07-31T12:55:22;4.90;;;3.35;;
80400;SDS011;69727;53.132;8.230;2023-07-31T12:57:49;5.60;;;3.15;;
80400;SDS011;69727;53.132;8.230;2023-07-31T13:00:14;5.55;;;2.97;;
80400;SDS011;69727;53.132;8.230;2023-07-31T13:02:43;4.97;;;3.08;;
80400;SDS011;69727;53.132;8.230;2023-07-31T13:05:18;6.10;;;3.17;;
80400;SDS011;69727;53.132;8.230;2023-07-31T13:07:44;5.55;;;3.33;;
80400;SDS011;69727;53.132;8.230;2023-07-31T13:10:10;5.95;;;4.50;;
80400;SDS011;69727;53.132;8.230;2023-07-31T13:12:35;4.90;;;3.10;;
80400;SDS011;69727;53.132;8.230;2023-07-31T13:15:00;4.90;;;3.07;;
80400;SDS011;69727;53.132;8.230;2023-07-31T13:17:37;5.87;;;3.53;;
80400;SDS011;69727;53.132;8.230;2023-07-31T13:20:03;5.90;;;2.88;;
80400;SDS011;69727;53.132;8.230;2023-07-31T13:22:36;7.70;;;3.40;;
80400;SDS011;69727;53.132;8.230;2023-07-31T13:25:21;7.65;;;3.38;;
80400;SDS011;69727;53.132;8.230;2023-07-31T13:33:09;6.38;;;3.90;;
80400;SDS011;69727;53.132;8.230;2023-07-31T13:35:43;5.32;;;3.53;;
80400;SDS011;69727;53.132;8.230;2023-07-31T13:38:37;7.78;;;4.32;;
80400;SDS011;69727;53.132;8.230;2023-07-31T13:41:32;8.23;;;4.82;;
80400;SDS011;69727;53.132;8.230;2023-07-31T13:44:03;8.77;;;5.35;;
80400;SDS011;69727;53.132;8.230;2023-07-31T13:46:28;12.85;;;5.00;;
80400;SDS011;69727;53.132;8.230;2023-07-31T13:48:53;7.50;;;4.70;;
80400;SDS011;69727;53.132;8.230;2023-07-31T13:51:20;10.10;;;5.40;;
80400;SDS011;69727;53.132;8.230;2023-07-31T13:53:45;10.27;;;5.60;;
80400;SDS011;69727;53.132;8.230;2023-07-31T13:56:11;10.67;;;5.37;;
80400;SDS011;69727;53.132;8.230;2023-07-31T13:58:36;14.93;;;6.00;;
80400;SDS011;69727;53.132;8.230;2023-07-31T14:01:01;12.37;;;6.40;;
80400;SDS011;69727;53.132;8.230;2023-07-31T14:03:33;11.53;;;6.67;;
80400;SDS011;69727;53.132;8.230;2023-07-31T14:05:58;31.02;;;8.25;;
80400;SDS011;69727;53.132;8.230;2023-07-31T14:08:24;13.10;;;7.07;;
80400;SDS011;69727;53.132;8.230;2023-07-31T14:10:49;18.40;;;7.60;;
80400;SDS011;69727;53.132;8.230;2023-07-31T14:13:14;17.77;;;8.13;;
80400;SDS011;69727;53.132;8.230;2023-07-31T14:15:41;15.70;;;6.97;;
80400;SDS011;69727;53.132;8.230;2023-07-31T14:18:07;16.13;;;7.72;;
80400;SDS011;69727;53.132;8.230;2023-07-31T14:20:35;20.90;;;8.67;;
80400;SDS011;69727;53.132;8.230;2023-07-31T14:26:18;19.15;;;8.00;;
80400;SDS011;69727;53.132;8.230;2023-07-31T14:28:43;23.00;;;9.17;;
80400;SDS011;69727;53.132;8.230;2023-07-31T14:31:08;22.48;;;9.63;;
80400;SDS011;69727;53.132;8.230;2023-07-31T14:33:34;20.33;;;8.73;;
80400;SDS011;69727;53.132;8.230;2023-07-31T14:35:59;21.67;;;9.23;;
80400;SDS011;69727;53.132;8.230;2023-07-31T14:38:24;18.10;;;7.80;;
80400;SDS011;69727;53.132;8.230;2023-07-31T14:40:49;16.63;;;6.87;;
80400;SDS011;69727;53.132;8.230;2023-07-31T14:43:15;10.75;;;5.60;;
80400;SDS011;69727;53.132;8.230;2023-07-31T14:45:40;13.57;;;5.87;;
80400;SDS011;69727;53.132;8.230;2023-07-31T14:48:06;9.93;;;5.43;;
80400;SDS011;69727;53.132;8.230;2023-07-31T14:50:31;16.23;;;5.70;;
80400;SDS011;69727;53.132;8.230;2023-07-31T14:52:56;16.10;;;6.87;;
80400;SDS011;69727;53.132;8.230;2023-07-31T14:55:21;11.77;;;6.23;;
80400;SDS011;69727;53.132;8.230;2023-07-31T14:57:47;13.00;;;5.43;;
80400;SDS011;69727;53.132;8.230;2023-07-31T15:00:12;15.90;;;6.32;;
80400;SDS011;69727;53.132;8.230;2023-07-31T15:02:38;10.77;;;5.75;;
80400;SDS011;69727;53.132;8.230;2023-07-31T15:05:03;12.13;;;5.80;;
80400;SDS011;69727;53.132;8.230;2023-07-31T15:07:28;11.85;;;6.75;;
80400;SDS011;69727;53.132;8.230;2023-07-31T15:09:54;10.30;;;5.63;;
80400;SDS011;69727;53.132;8.230;2023-07-31T15:12:19;12.47;;;5.57;;
80400;SDS011;69727;53.132;8.230;2023-07-31T15:14:44;10.80;;;6.00;;
80400;SDS011;69727;53.132;8.230;2023-07-31T15:17:09;13.77;;;6.23;;
80400;SDS011;69727;53.132;8.230;2023-07-31T15:19:35;12.40;;;6.40;;
80400;SDS011;69727;53.132;8.230;2023-07-31T15:22:02;10.25;;;5.43;;
80400;SDS011;69727;53.132;8.230;2023-07-31T15:24:27;15.05;;;5.75;;
80400;SDS011;69727;53.132;8.230;2023-07-31T15:26:52;10.63;;;5.07;;
80400;SDS011;69727;53.132;8.230;2023-07-31T15:29:17;10.50;;;5.70;;
80400;SDS011;69727;53.132;8.230;2023-07-31T15:31:44;10.80;;;5.55;;
80400;SDS011;69727;53.132;8.230;2023-07-31T15:34:10;8.45;;;4.03;;
80400;SDS011;69727;53.132;8.230;2023-07-31T15:36:36;9.98;;;4.97;;
80400;SDS011;69727;53.132;8.230;2023-07-31T15:39:01;7.97;;;4.53;;
80400;SDS011;69727;53.132;8.230;2023-07-31T15:41:27;8.23;;;4.82;;
80400;SDS011;69727;53.132;8.230;2023-07-31T15:43:56;10.52;;;5.57;;
80400;SDS011;69727;53.132;8.230;2023-07-31T15:49:36;11.10;;;5.55;;
80400;SDS011;69727;53.132;8.230;2023-07-31T15:52:52;14.93;;;6.78;;
80400;SDS011;69727;53.132;8.230;2023-07-31T15:55:23;12.70;;;6.60;;
80400;SDS011;69727;53.132;8.230;2023-07-31T16:00:34;13.23;;;6.75;;
80400;SDS011;69727;53.132;8.230;2023-07-31T16:03:38;11.95;;;6.88;;
80400;SDS011;69727;53.132;8.230;2023-07-31T16:06:04;13.60;;;6.90;;
80400;SDS011;69727;53.132;8.230;2023-07-31T16:08:29;19.73;;;7.30;;
80400;SDS011;69727;53.132;8.230;2023-07-31T16:10:54;12.80;;;7.20;;
80400;SDS011;69727;53.132;8.230;2023-07-31T16:13:21;11.25;;;6.78;;
80400;SDS011;69727;53.132;8.230;2023-07-31T16:15:47;13.63;;;7.03;;
80400;SDS011;69727;53.132;8.230;2023-07-31T16:18:14;13.15;;;7.10;;
80400;SDS011;69727;53.132;8.230;2023-07-31T16:20:43;13.23;;;7.03;;
80400;SDS011;69727;53.132;8.230;2023-07-31T16:23:26;10.52;;;5.72;;
80400;SDS011;69727;53.132;8.230;2023-07-31T16:56:38;11.57;;;5.18;;
80400;SDS011;69727;53.132;8.230;2023-07-31T17:05:22;8.77;;;5.03;;
80400;SDS011;69727;53.132;8.230;2023-07-31T17:14:52;10.23;;;5.47;;
80400;SDS011;69727;53.132;8.230;2023-07-31T18:07:36;14.23;;;7.45;;
80400;SDS011;69727;53.132;8.230;2023-07-31T18:10:47;11.23;;;6.65;;
80400;SDS011;69727;53.132;8.230;2023-07-31T18:13:12;12.87;;;7.70;;
80400;SDS011;69727;53.132;8.230;2023-07-31T18:15:37;11.27;;;6.45;;
80400;SDS011;69727;53.132;8.230;2023-07-31T18:18:07;12.73;;;6.53;;
80400;SDS011;69727;53.132;8.230;2023-07-31T18:20:35;9.83;;;6.07;;
80400;SDS011;69727;53.132;8.230;2023-07-31T18:23:00;11.57;;;6.47;;
80400;SDS011;69727;53.132;8.230;2023-07-31T18:25:25;10.43;;;6.03;;
80400;SDS011;69727;53.132;8.230;2023-07-31T18:27:50;16.10;;;6.97;;
80400;SDS011;69727;53.132;8.230;2023-07-31T18:30:16;15.53;;;6.40;;
80400;SDS011;69727;53.132;8.230;2023-07-31T18:32:41;13.37;;;6.20;;
80400;SDS011;69727;53.132;8.230;2023-07-31T18:35:06;13.00;;;6.50;;
80400;SDS011;69727;53.132;8.230;2023-07-31T18:37:31;13.32;;;6.55;;
80400;SDS011;69727;53.132;8.230;2023-07-31T18:39:57;15.23;;;6.27;;
80400;SDS011;69727;53.132;8.230;2023-07-31T18:42:22;10.70;;;6.20;;
80400;SDS011;69727;53.132;8.230;2023-07-31T18:44:47;11.97;;;5.40;;
80400;SDS011;69727;53.132;8.230;2023-07-31T18:47:12;14.30;;;5.90;;
80400;SDS011;69727;53.132;8.230;2023-07-31T18:49:38;14.00;;;5.47;;
80400;SDS011;69727;53.132;8.230;2023-07-31T18:52:03;13.70;;;5.70;;
80400;SDS011;69727;53.132;8.230;2023-07-31T18:54:28;17.45;;;5.47;;
80400;SDS011;69727;53.132;8.230;2023-07-31T18:56:55;12.05;;;4.90;;
80400;SDS011;69727;53.132;8.230;2023-07-31T18:59:20;7.83;;;4.13;;
80400;SDS011;69727;53.132;8.230;2023-07-31T19:01:45;8.00;;;4.20;;
80400;SDS011;69727;53.132;8.230;2023-07-31T19:04:11;12.20;;;4.77;;
80400;SDS011;69727;53.132;8.230;2023-07-31T19:06:36;9.50;;;4.28;;
80400;SDS011;69727;53.132;8.230;2023-07-31T19:09:04;9.70;;;3.92;;
80400;SDS011;69727;53.132;8.230;2023-07-31T19:11:29;8.75;;;4.18;;
80400;SDS011;69727;53.132;8.230;2023-07-31T19:13:54;8.43;;;3.77;;
80400;SDS011;69727;53.132;8.230;2023-07-31T19:16:20;8.23;;;3.80;;
80400;SDS011;69727;53.132;8.230;2023-07-31T19:18:45;7.70;;;3.37;;
80400;SDS011;69727;53.132;8.230;2023-07-31T19:21:10;14.40;;;3.97;;
80400;SDS011;69727;53.132;8.230;2023-07-31T19:23:36;13.93;;;3.97;;
80400;SDS011;69727;53.132;8.230;2023-07-31T19:26:01;10.52;;;3.95;;